sensor_id;sensor_type;location;lat;lon;timestamp;temperature;humidity
1155;DHT22;566;48.414;9.118;2023-04-25T00:01:22;7.10;96.10
1155;DHT22;566;48.414;9.118;2023-04-25T00:03:48;7.10;95.80
1155;DHT22;566;48.414;9.118;2023-04-25T00:06:14;7.20;96.20
1155;DHT22;566;48.414;9.118;2023-04-25T00:08:40;7.10;96.00
1155;DHT22;566;48.414;9.118;2023-04-25T00:11:05;7.00;96.60
1155;DHT22;566;48.414;9.118;2023-04-25T00:13:31;7.00;96.80
1155;DHT22;566;48.414;9.118;2023-04-25T00:15:57;7.00;96.70
1155;DHT22;566;48.414;9.118;2023-04-25T00:18:23;6.90;96.80
1155;DHT22;566;48.414;9.118;2023-04-25T00:20:55;6.90;97.10
1155;DHT22;566;48.414;9.118;2023-04-25T00:23:21;6.90;96.90
1155;DHT22;566;48.414;9.118;2023-04-25T00:25:48;7.00;96.50
1155;DHT22;566;48.414;9.118;2023-04-25T00:28:14;7.00;95.80
1155;DHT22;566;48.414;9.118;2023-04-25T00:30:40;7.20;95.60
1155;DHT22;566;48.414;9.118;2023-04-25T00:33:06;7.20;95.00
1155;DHT22;566;48.414;9.118;2023-04-25T00:35:32;7.20;94.70
1155;DHT22;566;48.414;9.118;2023-04-25T00:37:58;7.20;94.80
1155;DHT22;566;48.414;9.118;2023-04-25T00:40:24;7.20;95.00
1155;DHT22;566;48.414;9.118;2023-04-25T00:42:51;7.20;95.50
1155;DHT22;566;48.414;9.118;2023-04-25T00:45:17;7.20;95.40
1155;DHT22;566;48.414;9.118;2023-04-25T00:47:43;7.10;95.60
1155;DHT22;566;48.414;9.118;2023-04-25T00:50:10;7.10;96.00
1155;DHT22;566;48.414;9.118;2023-04-25T00:52:38;7.10;96.20
1155;DHT22;566;48.414;9.118;2023-04-25T00:55:05;7.00;96.40
1155;DHT22;566;48.414;9.118;2023-04-25T00:57:31;7.00;96.50
1155;DHT22;566;48.414;9.118;2023-04-25T00:59:56;7.00;96.60
1155;DHT22;566;48.414;9.118;2023-04-25T01:02:22;7.00;97.30
1155;DHT22;566;48.414;9.118;2023-04-25T01:04:48;6.90;97.50
1155;DHT22;566;48.414;9.118;2023-04-25T01:07:14;6.90;97.40
1155;DHT22;566;48.414;9.118;2023-04-25T01:09:41;6.80;97.10
1155;DHT22;566;48.414;9.118;2023-04-25T01:12:06;6.90;96.80
1155;DHT22;566;48.414;9.118;2023-04-25T01:14:32;7.00;96.90
1155;DHT22;566;48.414;9.118;2023-04-25T01:16:58;7.00;96.60
1155;DHT22;566;48.414;9.118;2023-04-25T01:19:24;7.00;96.80
1155;DHT22;566;48.414;9.118;2023-04-25T01:21:50;6.90;97.20
1155;DHT22;566;48.414;9.118;2023-04-25T01:24:16;6.90;97.10
1155;DHT22;566;48.414;9.118;2023-04-25T01:26:43;6.80;97.40
1155;DHT22;566;48.414;9.118;2023-04-25T01:29:19;6.80;97.30
1155;DHT22;566;48.414;9.118;2023-04-25T01:31:45;6.80;97.40
1155;DHT22;566;48.414;9.118;2023-04-25T01:34:11;6.80;97.50
1155;DHT22;566;48.414;9.118;2023-04-25T01:36:37;6.80;97.50
1155;DHT22;566;48.414;9.118;2023-04-25T01:39:02;6.60;97.90
1155;DHT22;566;48.414;9.118;2023-04-25T01:41:28;6.60;97.90
1155;DHT22;566;48.414;9.118;2023-04-25T01:43:54;6.50;98.00
1155;DHT22;566;48.414;9.118;2023-04-25T01:46:20;6.50;98.00
1155;DHT22;566;48.414;9.118;2023-04-25T01:48:46;6.50;98.00
1155;DHT22;566;48.414;9.118;2023-04-25T01:51:12;6.50;98.00
1155;DHT22;566;48.414;9.118;2023-04-25T01:53:38;6.50;98.00
1155;DHT22;566;48.414;9.118;2023-04-25T01:56:04;6.50;98.00
1155;DHT22;566;48.414;9.118;2023-04-25T01:58:30;6.40;98.00
1155;DHT22;566;48.414;9.118;2023-04-25T02:00:55;6.30;98.00
1155;DHT22;566;48.414;9.118;2023-04-25T02:03:21;6.30;98.00
1155;DHT22;566;48.414;9.118;2023-04-25T02:05:46;6.30;98.00
1155;DHT22;566;48.414;9.118;2023-04-25T02:08:12;6.20;98.00
1155;DHT22;566;48.414;9.118;2023-04-25T02:10:38;6.30;98.00
1155;DHT22;566;48.414;9.118;2023-04-25T02:13:04;6.30;98.00
1155;DHT22;566;48.414;9.118;2023-04-25T02:15:30;6.30;98.00
1155;DHT22;566;48.414;9.118;2023-04-25T02:17:56;6.30;98.00
1155;DHT22;566;48.414;9.118;2023-04-25T02:20:22;6.30;98.00
1155;DHT22;566;48.414;9.118;2023-04-25T02:22:48;6.20;98.00
1155;DHT22;566;48.414;9.118;2023-04-25T02:25:14;6.20;98.00
1155;DHT22;566;48.414;9.118;2023-04-25T02:27:41;6.00;98.00
1155;DHT22;566;48.414;9.118;2023-04-25T02:30:08;6.00;98.00
1155;DHT22;566;48.414;9.118;2023-04-25T02:32:33;6.00;98.00
1155;DHT22;566;48.414;9.118;2023-04-25T02:35:00;6.10;98.00
1155;DHT22;566;48.414;9.118;2023-04-25T02:37:33;6.10;98.00
1155;DHT22;566;48.414;9.118;2023-04-25T02:39:59;6.00;98.00
1155;DHT22;566;48.414;9.118;2023-04-25T02:42:26;5.90;98.00
1155;DHT22;566;48.414;9.118;2023-04-25T02:44:51;5.80;98.00
1155;DHT22;566;48.414;9.118;2023-04-25T02:47:17;5.80;98.00
1155;DHT22;566;48.414;9.118;2023-04-25T02:49:42;5.70;98.00
1155;DHT22;566;48.414;9.118;2023-04-25T02:52:08;5.70;98.00
1155;DHT22;566;48.414;9.118;2023-04-25T02:54:34;5.70;98.00
1155;DHT22;566;48.414;9.118;2023-04-25T02:57:00;5.70;98.00
1155;DHT22;566;48.414;9.118;2023-04-25T02:59:26;5.60;98.00
1155;DHT22;566;48.414;9.118;2023-04-25T03:01:51;5.50;98.00
1155;DHT22;566;48.414;9.118;2023-04-25T03:04:17;5.40;98.00
1155;DHT22;566;48.414;9.118;2023-04-25T03:06:44;5.30;98.00
1155;DHT22;566;48.414;9.118;2023-04-25T03:09:10;5.30;98.00
1155;DHT22;566;48.414;9.118;2023-04-25T03:11:38;5.30;98.00
1155;DHT22;566;48.414;9.118;2023-04-25T03:14:04;5.40;98.00
1155;DHT22;566;48.414;9.118;2023-04-25T03:16:29;5.50;98.00
1155;DHT22;566;48.414;9.118;2023-04-25T03:18:56;5.50;98.00
1155;DHT22;566;48.414;9.118;2023-04-25T03:21:22;5.50;98.00
1155;DHT22;566;48.414;9.118;2023-04-25T03:23:48;5.60;98.00
1155;DHT22;566;48.414;9.118;2023-04-25T03:26:16;5.60;98.00
1155;DHT22;566;48.414;9.118;2023-04-25T03:28:42;5.60;98.00
1155;DHT22;566;48.414;9.118;2023-04-25T03:31:07;5.60;98.00
1155;DHT22;566;48.414;9.118;2023-04-25T03:33:33;5.70;98.00
1155;DHT22;566;48.414;9.118;2023-04-25T03:35:58;5.70;98.00
1155;DHT22;566;48.414;9.118;2023-04-25T03:38:24;5.70;98.00
1155;DHT22;566;48.414;9.118;2023-04-25T03:40:51;5.70;98.00
1155;DHT22;566;48.414;9.118;2023-04-25T03:43:16;5.80;98.00
1155;DHT22;566;48.414;9.118;2023-04-25T03:45:44;5.80;98.00
1155;DHT22;566;48.414;9.118;2023-04-25T03:48:11;5.90;98.00
1155;DHT22;566;48.414;9.118;2023-04-25T03:50:36;5.90;98.00
1155;DHT22;566;48.414;9.118;2023-04-25T03:53:02;5.90;98.00
1155;DHT22;566;48.414;9.118;2023-04-25T03:55:27;5.90;98.00
1155;DHT22;566;48.414;9.118;2023-04-25T03:57:53;5.90;98.00
1155;DHT22;566;48.414;9.118;2023-04-25T04:00:18;5.80;98.00
1155;DHT22;566;48.414;9.118;2023-04-25T04:02:44;5.70;98.00
1155;DHT22;566;48.414;9.118;2023-04-25T04:05:10;5.60;98.00
1155;DHT22;566;48.414;9.118;2023-04-25T04:07:35;5.50;98.00
1155;DHT22;566;48.414;9.118;2023-04-25T04:10:09;5.40;97.70
1155;DHT22;566;48.414;9.118;2023-04-25T04:12:35;5.30;97.50
1155;DHT22;566;48.414;9.118;2023-04-25T04:15:03;5.30;97.70
1155;DHT22;566;48.414;9.118;2023-04-25T04:17:29;5.30;97.50
1155;DHT22;566;48.414;9.118;2023-04-25T04:19:55;5.50;97.80
1155;DHT22;566;48.414;9.118;2023-04-25T04:22:23;5.60;98.00
1155;DHT22;566;48.414;9.118;2023-04-25T04:24:49;5.70;98.00
1155;DHT22;566;48.414;9.118;2023-04-25T04:27:18;5.80;98.00
1155;DHT22;566;48.414;9.118;2023-04-25T04:29:47;5.80;98.00
1155;DHT22;566;48.414;9.118;2023-04-25T04:32:14;5.80;98.00
1155;DHT22;566;48.414;9.118;2023-04-25T04:34:40;5.80;98.00
1155;DHT22;566;48.414;9.118;2023-04-25T04:37:07;5.80;98.00
1155;DHT22;566;48.414;9.118;2023-04-25T04:39:33;5.80;98.00
1155;DHT22;566;48.414;9.118;2023-04-25T04:41:59;5.80;98.00
1155;DHT22;566;48.414;9.118;2023-04-25T04:44:27;5.80;98.00
1155;DHT22;566;48.414;9.118;2023-04-25T04:46:53;5.80;98.00
1155;DHT22;566;48.414;9.118;2023-04-25T04:49:19;5.70;98.00
1155;DHT22;566;48.414;9.118;2023-04-25T04:51:45;5.70;98.00
1155;DHT22;566;48.414;9.118;2023-04-25T04:54:10;5.60;97.80
1155;DHT22;566;48.414;9.118;2023-04-25T04:56:39;5.60;97.60
1155;DHT22;566;48.414;9.118;2023-04-25T04:59:04;5.70;98.00
1155;DHT22;566;48.414;9.118;2023-04-25T05:01:30;5.80;98.00
1155;DHT22;566;48.414;9.118;2023-04-25T05:03:56;5.90;98.00
1155;DHT22;566;48.414;9.118;2023-04-25T05:06:26;6.00;98.00
1155;DHT22;566;48.414;9.118;2023-04-25T05:08:52;6.10;98.00
1155;DHT22;566;48.414;9.118;2023-04-25T05:11:19;6.20;98.00
1155;DHT22;566;48.414;9.118;2023-04-25T05:13:45;6.20;98.00
1155;DHT22;566;48.414;9.118;2023-04-25T05:16:12;6.20;98.00
1155;DHT22;566;48.414;9.118;2023-04-25T05:18:39;6.30;98.00
1155;DHT22;566;48.414;9.118;2023-04-25T05:21:05;6.20;98.00
1155;DHT22;566;48.414;9.118;2023-04-25T05:23:31;6.10;98.00
1155;DHT22;566;48.414;9.118;2023-04-25T05:25:57;6.00;98.00
1155;DHT22;566;48.414;9.118;2023-04-25T05:28:23;5.90;98.00
1155;DHT22;566;48.414;9.118;2023-04-25T05:30:49;5.90;98.00
1155;DHT22;566;48.414;9.118;2023-04-25T05:33:15;6.00;98.00
1155;DHT22;566;48.414;9.118;2023-04-25T05:35:41;6.10;98.00
1155;DHT22;566;48.414;9.118;2023-04-25T05:38:07;6.10;98.00
1155;DHT22;566;48.414;9.118;2023-04-25T05:40:32;6.10;98.00
1155;DHT22;566;48.414;9.118;2023-04-25T05:42:58;6.10;98.00
1155;DHT22;566;48.414;9.118;2023-04-25T05:45:23;6.10;98.00
1155;DHT22;566;48.414;9.118;2023-04-25T05:47:49;6.10;97.70
1155;DHT22;566;48.414;9.118;2023-04-25T05:50:15;6.10;98.00
1155;DHT22;566;48.414;9.118;2023-04-25T05:52:40;6.10;98.00
1155;DHT22;566;48.414;9.118;2023-04-25T05:55:06;6.20;98.00
1155;DHT22;566;48.414;9.118;2023-04-25T05:57:32;6.30;98.00
1155;DHT22;566;48.414;9.118;2023-04-25T05:59:57;6.50;98.00
1155;DHT22;566;48.414;9.118;2023-04-25T06:02:23;6.70;98.00
1155;DHT22;566;48.414;9.118;2023-04-25T06:04:52;6.80;97.30
1155;DHT22;566;48.414;9.118;2023-04-25T06:07:18;6.90;97.10
1155;DHT22;566;48.414;9.118;2023-04-25T06:09:44;7.10;96.80
1155;DHT22;566;48.414;9.118;2023-04-25T06:12:10;7.20;95.50
1155;DHT22;566;48.414;9.118;2023-04-25T06:14:35;7.10;95.90
1155;DHT22;566;48.414;9.118;2023-04-25T06:17:02;7.20;96.10
1155;DHT22;566;48.414;9.118;2023-04-25T06:19:32;7.10;95.40
1155;DHT22;566;48.414;9.118;2023-04-25T06:21:58;7.10;95.90
1155;DHT22;566;48.414;9.118;2023-04-25T06:24:24;7.20;95.40
1155;DHT22;566;48.414;9.118;2023-04-25T06:26:49;7.30;96.00
1155;DHT22;566;48.414;9.118;2023-04-25T06:29:15;7.30;95.60
1155;DHT22;566;48.414;9.118;2023-04-25T06:31:40;7.30;95.70
1155;DHT22;566;48.414;9.118;2023-04-25T06:34:06;7.30;95.50
1155;DHT22;566;48.414;9.118;2023-04-25T06:36:32;7.40;95.50
1155;DHT22;566;48.414;9.118;2023-04-25T06:38:57;7.40;95.30
1155;DHT22;566;48.414;9.118;2023-04-25T06:41:23;7.40;95.60
1155;DHT22;566;48.414;9.118;2023-04-25T06:43:48;7.40;95.10
1155;DHT22;566;48.414;9.118;2023-04-25T06:46:14;7.50;94.90
1155;DHT22;566;48.414;9.118;2023-04-25T06:48:39;7.50;94.70
1155;DHT22;566;48.414;9.118;2023-04-25T06:51:05;7.70;94.90
1155;DHT22;566;48.414;9.118;2023-04-25T06:53:30;7.80;94.50
1155;DHT22;566;48.414;9.118;2023-04-25T06:55:56;7.90;94.50
1155;DHT22;566;48.414;9.118;2023-04-25T06:58:21;7.90;94.20
1155;DHT22;566;48.414;9.118;2023-04-25T07:00:51;7.90;95.00
1155;DHT22;566;48.414;9.118;2023-04-25T07:03:17;7.90;95.00
1155;DHT22;566;48.414;9.118;2023-04-25T07:05:42;7.80;94.50
1155;DHT22;566;48.414;9.118;2023-04-25T07:08:08;7.80;95.60
1155;DHT22;566;48.414;9.118;2023-04-25T07:10:33;7.70;96.20
1155;DHT22;566;48.414;9.118;2023-04-25T07:12:59;7.80;96.60
1155;DHT22;566;48.414;9.118;2023-04-25T07:15:24;7.80;97.00
1155;DHT22;566;48.414;9.118;2023-04-25T07:17:50;7.60;97.60
1155;DHT22;566;48.414;9.118;2023-04-25T07:20:17;7.60;97.90
1155;DHT22;566;48.414;9.118;2023-04-25T07:22:42;7.50;96.50
1155;DHT22;566;48.414;9.118;2023-04-25T07:25:08;7.20;95.40
1155;DHT22;566;48.414;9.118;2023-04-25T07:27:34;6.90;93.30
1155;DHT22;566;48.414;9.118;2023-04-25T07:29:59;6.70;94.70
1155;DHT22;566;48.414;9.118;2023-04-25T07:32:28;6.50;92.60
1155;DHT22;566;48.414;9.118;2023-04-25T07:34:54;6.20;92.20
1155;DHT22;566;48.414;9.118;2023-04-25T07:37:19;6.10;93.40
1155;DHT22;566;48.414;9.118;2023-04-25T07:39:45;6.00;91.30
1155;DHT22;566;48.414;9.118;2023-04-25T07:42:12;5.90;87.90
1155;DHT22;566;48.414;9.118;2023-04-25T07:44:37;5.80;85.80
1155;DHT22;566;48.414;9.118;2023-04-25T07:47:07;5.80;85.20
1155;DHT22;566;48.414;9.118;2023-04-25T07:49:40;5.80;84.30
1155;DHT22;566;48.414;9.118;2023-04-25T07:52:06;5.80;83.90
1155;DHT22;566;48.414;9.118;2023-04-25T07:54:32;5.90;85.20
1155;DHT22;566;48.414;9.118;2023-04-25T07:56:58;5.90;83.50
1155;DHT22;566;48.414;9.118;2023-04-25T07:59:23;6.10;81.80
1155;DHT22;566;48.414;9.118;2023-04-25T08:01:49;6.20;83.10
1155;DHT22;566;48.414;9.118;2023-04-25T08:04:15;6.20;84.70
1155;DHT22;566;48.414;9.118;2023-04-25T08:06:40;6.30;83.40
1155;DHT22;566;48.414;9.118;2023-04-25T08:09:06;6.50;83.50
1155;DHT22;566;48.414;9.118;2023-04-25T08:11:33;6.50;86.30
1155;DHT22;566;48.414;9.118;2023-04-25T08:13:59;6.50;88.90
1155;DHT22;566;48.414;9.118;2023-04-25T08:16:25;6.40;89.40
1155;DHT22;566;48.414;9.118;2023-04-25T08:18:50;6.20;88.50
1155;DHT22;566;48.414;9.118;2023-04-25T08:21:16;6.10;85.60
1155;DHT22;566;48.414;9.118;2023-04-25T08:23:41;6.10;87.40
1155;DHT22;566;48.414;9.118;2023-04-25T08:26:07;6.00;85.90
1155;DHT22;566;48.414;9.118;2023-04-25T08:28:33;6.00;83.50
1155;DHT22;566;48.414;9.118;2023-04-25T08:30:58;6.00;83.70
1155;DHT22;566;48.414;9.118;2023-04-25T08:33:25;5.90;82.60
1155;DHT22;566;48.414;9.118;2023-04-25T08:35:50;5.80;82.00
1155;DHT22;566;48.414;9.118;2023-04-25T08:38:17;5.90;81.70
1155;DHT22;566;48.414;9.118;2023-04-25T08:40:43;5.90;82.80
1155;DHT22;566;48.414;9.118;2023-04-25T08:43:12;5.80;84.50
1155;DHT22;566;48.414;9.118;2023-04-25T08:45:42;5.60;81.80
1155;DHT22;566;48.414;9.118;2023-04-25T08:48:10;5.60;81.20
1155;DHT22;566;48.414;9.118;2023-04-25T08:50:50;5.40;85.90
1155;DHT22;566;48.414;9.118;2023-04-25T08:53:21;5.30;82.30
1155;DHT22;566;48.414;9.118;2023-04-25T08:55:48;5.30;80.00
1155;DHT22;566;48.414;9.118;2023-04-25T08:58:15;5.00;84.50
1155;DHT22;566;48.414;9.118;2023-04-25T09:00:41;4.90;80.50
1155;DHT22;566;48.414;9.118;2023-04-25T09:03:07;4.70;85.90
1155;DHT22;566;48.414;9.118;2023-04-25T09:05:33;4.50;84.40
1155;DHT22;566;48.414;9.118;2023-04-25T09:08:00;4.30;84.00
1155;DHT22;566;48.414;9.118;2023-04-25T09:10:26;4.10;83.50
1155;DHT22;566;48.414;9.118;2023-04-25T09:13:14;4.00;82.70
1155;DHT22;566;48.414;9.118;2023-04-25T09:15:51;3.90;81.20
1155;DHT22;566;48.414;9.118;2023-04-25T09:18:28;3.90;79.70
1155;DHT22;566;48.414;9.118;2023-04-25T09:20:58;3.90;79.50
1155;DHT22;566;48.414;9.118;2023-04-25T09:23:30;3.90;77.30
1155;DHT22;566;48.414;9.118;2023-04-25T09:25:56;4.00;76.90
1155;DHT22;566;48.414;9.118;2023-04-25T09:28:26;3.90;80.50
1155;DHT22;566;48.414;9.118;2023-04-25T09:30:56;3.80;78.30
1155;DHT22;566;48.414;9.118;2023-04-25T09:33:30;3.60;80.50
1155;DHT22;566;48.414;9.118;2023-04-25T09:36:02;3.50;83.60
1155;DHT22;566;48.414;9.118;2023-04-25T09:38:39;3.30;81.60
1155;DHT22;566;48.414;9.118;2023-04-25T09:41:06;3.20;80.90
1155;DHT22;566;48.414;9.118;2023-04-25T09:43:32;3.20;77.80
1155;DHT22;566;48.414;9.118;2023-04-25T09:45:58;3.20;80.80
1155;DHT22;566;48.414;9.118;2023-04-25T09:48:26;3.30;77.00
1155;DHT22;566;48.414;9.118;2023-04-25T09:51:10;3.40;79.70
1155;DHT22;566;48.414;9.118;2023-04-25T09:53:40;3.30;78.80
1155;DHT22;566;48.414;9.118;2023-04-25T09:56:07;3.30;79.30
1155;DHT22;566;48.414;9.118;2023-04-25T09:58:35;3.20;78.20
1155;DHT22;566;48.414;9.118;2023-04-25T10:01:10;3.10;77.50
1155;DHT22;566;48.414;9.118;2023-04-25T10:03:39;2.90;80.60
1155;DHT22;566;48.414;9.118;2023-04-25T10:06:12;2.70;79.10
1155;DHT22;566;48.414;9.118;2023-04-25T10:08:39;2.70;81.30
1155;DHT22;566;48.414;9.118;2023-04-25T10:11:07;2.60;78.30
1155;DHT22;566;48.414;9.118;2023-04-25T10:13:34;2.60;78.60
1155;DHT22;566;48.414;9.118;2023-04-25T10:16:02;2.30;80.00
1155;DHT22;566;48.414;9.118;2023-04-25T10:18:29;2.10;78.60
1155;DHT22;566;48.414;9.118;2023-04-25T10:20:56;2.10;75.00
1155;DHT22;566;48.414;9.118;2023-04-25T10:23:23;2.30;73.40
1155;DHT22;566;48.414;9.118;2023-04-25T10:25:50;2.20;75.10
1155;DHT22;566;48.414;9.118;2023-04-25T10:28:17;2.00;77.20
1155;DHT22;566;48.414;9.118;2023-04-25T10:31:06;2.00;75.40
1155;DHT22;566;48.414;9.118;2023-04-25T10:33:37;2.00;72.90
1155;DHT22;566;48.414;9.118;2023-04-25T10:36:20;2.20;73.00
1155;DHT22;566;48.414;9.118;2023-04-25T10:38:50;2.10;73.40
1155;DHT22;566;48.414;9.118;2023-04-25T10:41:21;2.30;71.10
1155;DHT22;566;48.414;9.118;2023-04-25T10:43:48;2.40;73.80
1155;DHT22;566;48.414;9.118;2023-04-25T10:46:25;2.40;74.90
1155;DHT22;566;48.414;9.118;2023-04-25T10:48:53;2.30;77.20
1155;DHT22;566;48.414;9.118;2023-04-25T10:51:28;2.30;77.50
1155;DHT22;566;48.414;9.118;2023-04-25T10:54:08;2.40;74.10
1155;DHT22;566;48.414;9.118;2023-04-25T10:56:37;2.50;74.90
1155;DHT22;566;48.414;9.118;2023-04-25T10:59:11;2.50;74.80
1155;DHT22;566;48.414;9.118;2023-04-25T11:01:45;2.50;79.50
1155;DHT22;566;48.414;9.118;2023-04-25T11:04:31;2.50;77.60
1155;DHT22;566;48.414;9.118;2023-04-25T11:10:04;2.90;78.30
1155;DHT22;566;48.414;9.118;2023-04-25T11:12:31;3.00;82.80
1155;DHT22;566;48.414;9.118;2023-04-25T11:15:05;3.30;79.40
1155;DHT22;566;48.414;9.118;2023-04-25T11:17:31;3.70;83.40
1155;DHT22;566;48.414;9.118;2023-04-25T11:19:57;3.90;88.10
1155;DHT22;566;48.414;9.118;2023-04-25T11:22:23;3.90;87.80
1155;DHT22;566;48.414;9.118;2023-04-25T11:24:48;3.80;88.40
1155;DHT22;566;48.414;9.118;2023-04-25T11:27:14;3.70;88.40
1155;DHT22;566;48.414;9.118;2023-04-25T11:29:40;3.70;88.90
1155;DHT22;566;48.414;9.118;2023-04-25T11:32:06;3.60;87.50
1155;DHT22;566;48.414;9.118;2023-04-25T11:34:33;3.60;88.10
1155;DHT22;566;48.414;9.118;2023-04-25T11:37:00;3.40;89.30
1155;DHT22;566;48.414;9.118;2023-04-25T11:39:28;3.40;86.20
1155;DHT22;566;48.414;9.118;2023-04-25T11:41:54;3.50;85.80
1155;DHT22;566;48.414;9.118;2023-04-25T11:44:21;3.60;84.20
1155;DHT22;566;48.414;9.118;2023-04-25T11:46:47;3.70;84.70
1155;DHT22;566;48.414;9.118;2023-04-25T11:49:13;3.70;86.70
1155;DHT22;566;48.414;9.118;2023-04-25T11:51:40;3.80;85.80
1155;DHT22;566;48.414;9.118;2023-04-25T11:54:06;3.90;86.80
1155;DHT22;566;48.414;9.118;2023-04-25T11:56:31;4.00;88.10
1155;DHT22;566;48.414;9.118;2023-04-25T11:59:01;4.10;86.90
1155;DHT22;566;48.414;9.118;2023-04-25T12:01:34;4.20;88.00
1155;DHT22;566;48.414;9.118;2023-04-25T12:04:11;4.50;90.40
1155;DHT22;566;48.414;9.118;2023-04-25T12:06:37;4.80;89.00
1155;DHT22;566;48.414;9.118;2023-04-25T12:09:10;5.00;89.80
1155;DHT22;566;48.414;9.118;2023-04-25T12:11:53;4.90;94.80
1155;DHT22;566;48.414;9.118;2023-04-25T12:14:30;4.90;92.20
1155;DHT22;566;48.414;9.118;2023-04-25T12:16:59;4.80;89.50
1155;DHT22;566;48.414;9.118;2023-04-25T12:19:25;4.80;87.70
1155;DHT22;566;48.414;9.118;2023-04-25T12:21:52;5.10;87.00
1155;DHT22;566;48.414;9.118;2023-04-25T12:24:22;5.10;89.30
1155;DHT22;566;48.414;9.118;2023-04-25T12:27:00;5.30;88.10
1155;DHT22;566;48.414;9.118;2023-04-25T12:29:29;5.80;89.00
1155;DHT22;566;48.414;9.118;2023-04-25T12:31:55;6.20;92.90
1155;DHT22;566;48.414;9.118;2023-04-25T12:34:22;6.40;93.80
1155;DHT22;566;48.414;9.118;2023-04-25T12:36:49;6.50;97.20
1155;DHT22;566;48.414;9.118;2023-04-25T12:39:18;6.30;94.10
1155;DHT22;566;48.414;9.118;2023-04-25T12:41:48;6.10;95.10
1155;DHT22;566;48.414;9.118;2023-04-25T12:44:14;5.90;93.60
1155;DHT22;566;48.414;9.118;2023-04-25T12:46:40;6.10;90.40
1155;DHT22;566;48.414;9.118;2023-04-25T12:49:07;6.40;92.50
1155;DHT22;566;48.414;9.118;2023-04-25T12:51:34;6.70;93.80
1155;DHT22;566;48.414;9.118;2023-04-25T12:54:00;6.90;94.10
1155;DHT22;566;48.414;9.118;2023-04-25T12:56:29;7.00;95.70
1155;DHT22;566;48.414;9.118;2023-04-25T12:58:55;6.80;95.10
1155;DHT22;566;48.414;9.118;2023-04-25T13:01:21;6.70;95.90
1155;DHT22;566;48.414;9.118;2023-04-25T13:03:47;6.60;94.50
1155;DHT22;566;48.414;9.118;2023-04-25T13:06:13;6.50;95.30
1155;DHT22;566;48.414;9.118;2023-04-25T13:08:39;6.40;94.00
1155;DHT22;566;48.414;9.118;2023-04-25T13:11:05;6.40;93.10
1155;DHT22;566;48.414;9.118;2023-04-25T13:13:31;6.80;91.90
1155;DHT22;566;48.414;9.118;2023-04-25T13:15:57;6.80;93.00
1155;DHT22;566;48.414;9.118;2023-04-25T13:18:23;6.80;91.80
1155;DHT22;566;48.414;9.118;2023-04-25T13:20:52;6.80;93.70
1155;DHT22;566;48.414;9.118;2023-04-25T13:23:17;6.80;95.80
1155;DHT22;566;48.414;9.118;2023-04-25T13:25:43;6.70;94.20
1155;DHT22;566;48.414;9.118;2023-04-25T13:28:08;7.00;93.30
1155;DHT22;566;48.414;9.118;2023-04-25T13:30:34;7.30;93.20
1155;DHT22;566;48.414;9.118;2023-04-25T13:32:59;7.70;98.00
1155;DHT22;566;48.414;9.118;2023-04-25T13:35:29;7.90;97.80
1155;DHT22;566;48.414;9.118;2023-04-25T13:37:55;8.30;97.90
1155;DHT22;566;48.414;9.118;2023-04-25T13:40:20;8.10;98.00
1155;DHT22;566;48.414;9.118;2023-04-25T13:42:46;8.40;98.00
1155;DHT22;566;48.414;9.118;2023-04-25T13:45:12;8.30;98.00
1155;DHT22;566;48.414;9.118;2023-04-25T13:47:37;8.70;98.00
1155;DHT22;566;48.414;9.118;2023-04-25T13:50:04;8.50;98.00
1155;DHT22;566;48.414;9.118;2023-04-25T13:52:33;8.20;98.00
1155;DHT22;566;48.414;9.118;2023-04-25T13:54:59;8.30;98.00
1155;DHT22;566;48.414;9.118;2023-04-25T13:57:25;8.80;98.00
1155;DHT22;566;48.414;9.118;2023-04-25T13:59:51;8.80;98.00
1155;DHT22;566;48.414;9.118;2023-04-25T14:02:17;8.70;97.80
1155;DHT22;566;48.414;9.118;2023-04-25T14:04:42;8.60;98.00
1155;DHT22;566;48.414;9.118;2023-04-25T14:07:08;8.30;98.00
1155;DHT22;566;48.414;9.118;2023-04-25T14:09:34;8.00;98.00
1155;DHT22;566;48.414;9.118;2023-04-25T14:11:59;7.80;98.00
1155;DHT22;566;48.414;9.118;2023-04-25T14:14:25;8.20;98.00
1155;DHT22;566;48.414;9.118;2023-04-25T14:16:51;8.30;98.00
1155;DHT22;566;48.414;9.118;2023-04-25T14:19:22;8.50;98.00
1155;DHT22;566;48.414;9.118;2023-04-25T14:21:47;8.50;98.00
1155;DHT22;566;48.414;9.118;2023-04-25T14:24:13;8.40;98.00
1155;DHT22;566;48.414;9.118;2023-04-25T14:26:39;8.00;98.00
1155;DHT22;566;48.414;9.118;2023-04-25T14:29:06;7.80;98.00
1155;DHT22;566;48.414;9.118;2023-04-25T14:31:33;7.90;98.00
1155;DHT22;566;48.414;9.118;2023-04-25T14:33:58;8.10;98.00
1155;DHT22;566;48.414;9.118;2023-04-25T14:36:24;8.60;98.00
1155;DHT22;566;48.414;9.118;2023-04-25T14:38:51;8.80;98.00
1155;DHT22;566;48.414;9.118;2023-04-25T14:41:17;9.20;98.00
1155;DHT22;566;48.414;9.118;2023-04-25T14:43:43;10.10;95.60
1155;DHT22;566;48.414;9.118;2023-04-25T14:46:10;11.30;93.30
1155;DHT22;566;48.414;9.118;2023-04-25T14:48:36;11.80;89.80
1155;DHT22;566;48.414;9.118;2023-04-25T14:51:02;11.30;91.20
1155;DHT22;566;48.414;9.118;2023-04-25T14:53:28;10.90;91.50
1155;DHT22;566;48.414;9.118;2023-04-25T14:55:53;11.10;92.10
1155;DHT22;566;48.414;9.118;2023-04-25T14:58:19;11.20;89.30
1155;DHT22;566;48.414;9.118;2023-04-25T15:00:45;11.50;89.50
1155;DHT22;566;48.414;9.118;2023-04-25T15:03:11;11.40;89.50
1155;DHT22;566;48.414;9.118;2023-04-25T15:05:41;11.40;90.20
1155;DHT22;566;48.414;9.118;2023-04-25T15:08:07;12.90;86.10
1155;DHT22;566;48.414;9.118;2023-04-25T15:10:33;13.60;82.60
1155;DHT22;566;48.414;9.118;2023-04-25T15:12:58;13.30;82.00
1155;DHT22;566;48.414;9.118;2023-04-25T15:15:24;13.70;82.30
1155;DHT22;566;48.414;9.118;2023-04-25T15:17:50;15.00;80.30
1155;DHT22;566;48.414;9.118;2023-04-25T15:20:15;15.30;79.70
1155;DHT22;566;48.414;9.118;2023-04-25T15:22:43;16.10;77.50
1155;DHT22;566;48.414;9.118;2023-04-25T15:25:09;16.30;76.30
1155;DHT22;566;48.414;9.118;2023-04-25T15:27:37;15.50;75.50
1155;DHT22;566;48.414;9.118;2023-04-25T15:30:11;13.80;79.10
1155;DHT22;566;48.414;9.118;2023-04-25T15:32:38;12.40;82.90
1155;DHT22;566;48.414;9.118;2023-04-25T15:35:05;11.20;86.60
1155;DHT22;566;48.414;9.118;2023-04-25T15:37:32;10.70;88.80
1155;DHT22;566;48.414;9.118;2023-04-25T15:40:11;10.20;89.10
1155;DHT22;566;48.414;9.118;2023-04-25T15:42:51;9.90;91.00
1155;DHT22;566;48.414;9.118;2023-04-25T15:45:18;9.90;92.40
1155;DHT22;566;48.414;9.118;2023-04-25T15:47:44;9.70;92.30
1155;DHT22;566;48.414;9.118;2023-04-25T15:50:10;9.40;92.20
1155;DHT22;566;48.414;9.118;2023-04-25T15:52:37;9.40;92.80
1155;DHT22;566;48.414;9.118;2023-04-25T15:55:04;9.40;93.00
1155;DHT22;566;48.414;9.118;2023-04-25T15:57:31;9.60;92.70
1155;DHT22;566;48.414;9.118;2023-04-25T15:59:57;9.70;92.60
1155;DHT22;566;48.414;9.118;2023-04-25T16:02:25;9.60;91.10
1155;DHT22;566;48.414;9.118;2023-04-25T16:04:51;9.40;92.40
1155;DHT22;566;48.414;9.118;2023-04-25T16:07:16;9.30;93.80
1155;DHT22;566;48.414;9.118;2023-04-25T16:09:42;8.90;95.10
1155;DHT22;566;48.414;9.118;2023-04-25T16:12:09;8.60;95.70
1155;DHT22;566;48.414;9.118;2023-04-25T16:14:35;9.00;96.70
1155;DHT22;566;48.414;9.118;2023-04-25T16:17:00;9.80;94.70
1155;DHT22;566;48.414;9.118;2023-04-25T16:19:26;10.20;93.20
1155;DHT22;566;48.414;9.118;2023-04-25T16:21:52;10.80;92.30
1155;DHT22;566;48.414;9.118;2023-04-25T16:24:18;11.70;88.90
1155;DHT22;566;48.414;9.118;2023-04-25T16:26:43;12.00;86.80
1155;DHT22;566;48.414;9.118;2023-04-25T16:29:10;12.10;86.50
1155;DHT22;566;48.414;9.118;2023-04-25T16:31:36;11.60;87.00
1155;DHT22;566;48.414;9.118;2023-04-25T16:34:03;11.30;87.90
1155;DHT22;566;48.414;9.118;2023-04-25T16:36:29;10.90;88.80